createdAt,value
2022-11-28T00:01:50.247Z,8.14
2022-11-28T00:04:52.466Z,7.94
2022-11-28T00:07:55.683Z,7.58
2022-11-28T00:10:57.551Z,8.24
2022-11-28T00:13:59.458Z,8.45
2022-11-28T00:17:01.351Z,8.33
2022-11-28T00:20:03.527Z,8.07
2022-11-28T00:23:05.388Z,8.07
2022-11-28T00:26:17.775Z,7.99
2022-11-28T00:29:19.635Z,7.35
2022-11-28T00:32:21.451Z,7.50
2022-11-28T00:35:23.313Z,8.51
2022-11-28T00:38:25.179Z,7.90
2022-11-28T00:41:28.734Z,8.17
2022-11-28T00:44:30.580Z,7.84
2022-11-28T00:47:32.478Z,8.09
2022-11-28T00:50:34.293Z,8.72
2022-11-28T00:53:36.548Z,8.72
2022-11-28T00:56:38.906Z,8.51
2022-11-28T00:59:40.772Z,7.97
2022-11-28T01:02:42.668Z,8.07
2022-11-28T01:05:44.634Z,8.10
2022-11-28T01:08:46.517Z,8.57
2022-11-28T01:11:49.232Z,8.01
2022-11-28T01:14:51.104Z,8.21
2022-11-28T01:17:52.931Z,8.81
2022-11-28T01:20:54.770Z,9.04
2022-11-28T01:23:56.629Z,8.61
2022-11-28T01:26:58.463Z,8.44
2022-11-28T01:30:00.308Z,7.79
2022-11-28T01:33:02.113Z,8.85
2022-11-28T01:36:04.172Z,8.85
2022-11-28T01:39:06.100Z,8.70
2022-11-28T01:42:07.961Z,8.34
2022-11-28T01:45:14.465Z,7.85
2022-11-28T01:48:18.017Z,8.65
2022-11-28T01:51:19.823Z,8.41
2022-11-28T01:54:24.013Z,8.39
2022-11-28T01:57:25.931Z,7.86
2022-11-28T02:00:27.807Z,8.43
2022-11-28T02:03:45.851Z,8.73
2022-11-28T02:06:47.682Z,8.37
2022-11-28T02:09:49.492Z,8.11
2022-11-28T02:13:03.650Z,8.01
2022-11-28T02:16:14.637Z,7.72
2022-11-28T02:19:34.893Z,7.49
2022-11-28T02:22:52.025Z,8.40
2022-11-28T02:26:09.223Z,8.13
2022-11-28T02:29:13.734Z,8.41
2022-11-28T02:32:18.495Z,8.32
2022-11-28T02:35:52.822Z,8.09
2022-11-28T02:38:58.686Z,8.22
2022-11-28T02:42:03.745Z,8.26
2022-11-28T02:45:35.071Z,8.29
2022-11-28T02:48:42.597Z,8.18
2022-11-28T02:51:46.322Z,8.19
2022-11-28T02:54:48.954Z,8.05
2022-11-28T02:57:52.128Z,7.74
2022-11-28T03:00:54.116Z,8.12
2022-11-28T03:04:14.754Z,7.12
2022-11-28T03:07:29.312Z,8.05
2022-11-28T03:10:33.909Z,7.96
2022-11-28T03:13:40.270Z,7.97
2022-11-28T03:16:46.414Z,7.85
2022-11-28T03:19:56.696Z,7.94
2022-11-28T03:23:01.040Z,8.07
2022-11-28T03:26:05.900Z,8.06
2022-11-28T03:29:16.636Z,8.20
2022-11-28T03:32:19.222Z,7.99
2022-11-28T03:35:22.692Z,7.64
2022-11-28T03:38:28.969Z,7.94
2022-11-28T03:41:41.936Z,8.19
2022-11-28T03:44:45.737Z,8.20
2022-11-28T03:47:48.423Z,8.28
2022-11-28T03:51:10.153Z,8.19
2022-11-28T03:54:13.880Z,8.46
2022-11-28T03:57:29.128Z,8.28
2022-11-28T04:00:31.016Z,8.44
2022-11-28T04:03:32.853Z,8.29
2022-11-28T04:06:37.297Z,8.04
2022-11-28T04:09:47.022Z,8.00
2022-11-28T04:13:24.193Z,7.64
2022-11-28T04:16:53.612Z,7.72
2022-11-28T04:19:58.519Z,7.79
2022-11-28T04:23:01.575Z,7.99
2022-11-28T04:26:05.192Z,7.91
2022-11-28T04:29:08.305Z,7.95
2022-11-28T04:32:10.368Z,7.91
2022-11-28T04:35:13.570Z,7.87
2022-11-28T04:38:15.420Z,7.72
2022-11-28T04:41:18.718Z,7.55
2022-11-28T04:44:31.609Z,8.09
2022-11-28T04:47:33.440Z,7.75
2022-11-28T04:50:42.585Z,8.03
2022-11-28T04:54:03.452Z,7.78
2022-11-28T04:57:17.360Z,7.75
2022-11-28T05:00:19.918Z,7.78
2022-11-28T05:03:21.985Z,7.73
2022-11-28T05:06:24.421Z,7.53
2022-11-28T05:09:26.260Z,7.53
2022-11-28T05:12:28.103Z,7.40
2022-11-28T05:15:29.956Z,7.27
2022-11-28T05:18:31.797Z,7.42
2022-11-28T05:21:33.698Z,7.46
2022-11-28T05:24:35.557Z,7.58
2022-11-28T05:27:37.502Z,7.65
2022-11-28T05:30:39.291Z,7.38
2022-11-28T05:33:41.129Z,7.48
2022-11-28T05:36:43.007Z,7.25
2022-11-28T05:39:45.203Z,7.11
2022-11-28T05:42:47.255Z,7.40
2022-11-28T05:45:49.382Z,7.51
2022-11-28T05:48:51.216Z,7.34
2022-11-28T05:51:53.086Z,7.07
2022-11-28T05:54:55.017Z,7.84
2022-11-28T05:57:56.832Z,7.63
2022-11-28T06:00:58.722Z,7.77
2022-11-28T06:04:01.174Z,7.87
2022-11-28T06:07:03.182Z,7.55
2022-11-28T06:10:05.392Z,7.89
2022-11-28T06:13:07.404Z,7.83
2022-11-28T06:16:09.890Z,7.47
2022-11-28T06:19:12.329Z,7.27
2022-11-28T06:22:14.440Z,7.38
2022-11-28T06:25:16.377Z,7.47
2022-11-28T06:28:18.182Z,6.72
2022-11-28T06:31:21.202Z,6.89
2022-11-28T06:34:23.945Z,7.17
2022-11-28T06:37:25.921Z,6.98
2022-11-28T06:40:27.788Z,7.30
2022-11-28T06:43:30.323Z,7.28
2022-11-28T06:46:32.347Z,7.53
2022-11-28T06:49:34.240Z,7.20
2022-11-28T06:52:36.363Z,7.38
2022-11-28T06:55:38.361Z,7.15
2022-11-28T06:58:40.646Z,7.44
2022-11-28T07:01:42.782Z,6.74
2022-11-28T07:04:44.993Z,7.64
2022-11-28T07:07:54.193Z,7.28
2022-11-28T07:10:57.733Z,7.43
2022-11-28T07:14:00.746Z,7.66
2022-11-28T07:17:02.832Z,7.40
2022-11-28T07:20:05.522Z,7.72
2022-11-28T07:23:07.454Z,7.69
2022-11-28T07:26:09.966Z,7.71
2022-11-28T07:29:18.092Z,7.62
2022-11-28T07:32:19.963Z,7.41
2022-11-28T07:35:21.782Z,7.73
2022-11-28T07:38:23.706Z,7.96
2022-11-28T07:41:26.977Z,7.82
2022-11-28T07:44:29.134Z,7.91
2022-11-28T07:47:31.073Z,7.73
2022-11-28T07:50:32.990Z,7.53
2022-11-28T07:53:35.285Z,7.45
2022-11-28T07:57:10.818Z,7.86
2022-11-28T07:59:59.806Z,7.20
2022-11-28T08:03:01.717Z,7.66
2022-11-28T08:06:03.943Z,7.94
2022-11-28T08:09:07.174Z,8.12
2022-11-28T08:12:09.129Z,7.92
2022-11-28T08:15:11.105Z,7.78
2022-11-28T08:18:13.085Z,8.20
2022-11-28T08:21:19.997Z,7.99
2022-11-28T08:24:22.195Z,8.20
2022-11-28T08:27:24.175Z,7.78
2022-11-28T08:30:27.065Z,8.02
2022-11-28T08:33:28.971Z,8.09
2022-11-28T08:36:30.847Z,8.32
2022-11-28T08:39:33.554Z,8.57
2022-11-28T08:42:35.640Z,8.20
2022-11-28T08:45:37.708Z,8.65
2022-11-28T08:48:40.021Z,8.09
2022-11-28T08:51:42.121Z,7.79
2022-11-28T08:54:44.308Z,8.16
2022-11-28T08:57:46.353Z,8.33
2022-11-28T09:00:48.305Z,8.54
2022-11-28T09:03:50.443Z,8.57
2022-11-28T09:06:52.737Z,7.97
2022-11-28T09:09:54.613Z,7.57
2022-11-28T09:12:56.445Z,8.05
2022-11-28T09:16:04.676Z,8.56
2022-11-28T09:19:09.383Z,8.44
2022-11-28T09:22:11.311Z,8.06
2022-11-28T09:25:13.866Z,8.08
2022-11-28T09:28:16.398Z,8.29
2022-11-28T09:31:18.601Z,7.48
2022-11-28T09:34:21.397Z,8.46
2022-11-28T09:37:23.194Z,7.75
2022-11-28T09:40:41.199Z,8.45
2022-11-28T09:43:43.539Z,8.57
2022-11-28T09:46:45.745Z,7.51
2022-11-28T09:49:55.505Z,8.32
2022-11-28T09:52:57.517Z,8.90
2022-11-28T09:56:00.477Z,8.58
2022-11-28T09:59:05.175Z,8.03
2022-11-28T10:02:26.707Z,8.48
2022-11-28T10:05:31.490Z,8.31
2022-11-28T10:08:51.999Z,8.47
2022-11-28T10:12:12.761Z,7.85
2022-11-28T10:15:15.395Z,7.57
2022-11-28T10:18:29.671Z,7.17
2022-11-28T10:21:31.487Z,7.63
2022-11-28T10:24:37.605Z,7.77
2022-11-28T10:27:39.532Z,8.11
2022-11-28T10:30:45.247Z,7.66
2022-11-28T10:33:49.133Z,6.82
2022-11-28T10:36:53.415Z,7.47
2022-11-28T10:39:55.755Z,7.71
2022-11-28T10:42:57.655Z,8.06
2022-11-28T10:45:59.506Z,7.53
2022-11-28T10:49:09.533Z,8.37
2022-11-28T10:52:17.439Z,8.01
2022-11-28T10:55:28.573Z,6.90
2022-11-28T10:58:39.695Z,6.61
2022-11-28T11:01:44.728Z,6.83
2022-11-28T11:04:50.684Z,7.83
2022-11-28T11:07:56.470Z,8.15
2022-11-28T11:10:58.460Z,8.52
2022-11-28T11:14:01.424Z,8.06
2022-11-28T11:17:03.999Z,8.38
2022-11-28T11:20:24.428Z,7.36
2022-11-28T11:23:26.287Z,8.31
2022-11-28T11:26:30.225Z,7.31
2022-11-28T11:29:35.573Z,8.48
2022-11-28T11:32:37.454Z,7.98
2022-11-28T11:35:47.509Z,8.12
2022-11-28T11:38:49.481Z,8.24
2022-11-28T11:41:52.433Z,8.84
2022-11-28T11:44:54.490Z,8.95
2022-11-28T11:47:56.390Z,8.54
2022-11-28T11:50:58.254Z,8.70
2022-11-28T11:54:03.270Z,8.18
2022-11-28T11:57:31.485Z,8.29
2022-11-28T12:00:47.523Z,8.19
2022-11-28T12:03:57.101Z,8.41
2022-11-28T12:06:59.093Z,8.65
2022-11-28T12:10:04.628Z,8.75
2022-11-28T12:13:08.824Z,8.21
2022-11-28T12:16:16.899Z,8.54
2022-11-28T12:19:45.476Z,8.55
2022-11-28T12:22:47.308Z,8.26
2022-11-28T12:25:50.878Z,8.47
2022-11-28T12:28:55.842Z,8.05
2022-11-28T12:32:00.796Z,8.65
2022-11-28T12:35:02.620Z,8.15
2022-11-28T12:38:22.736Z,8.44
2022-11-28T12:41:32.706Z,8.63
2022-11-28T12:44:58.077Z,8.66
2022-11-28T12:48:09.171Z,8.94
2022-11-28T12:51:11.008Z,8.87
2022-11-28T12:54:22.208Z,8.82
2022-11-28T12:57:35.041Z,8.54
2022-11-28T13:00:41.343Z,8.74
2022-11-28T13:04:02.741Z,8.53
2022-11-28T13:07:07.852Z,8.50
2022-11-28T13:10:15.553Z,7.74
2022-11-28T13:13:23.412Z,8.38
2022-11-28T13:16:27.296Z,8.26
2022-11-28T13:19:29.601Z,8.60
2022-11-28T13:22:40.030Z,8.84
2022-11-28T13:25:50.685Z,8.41
2022-11-28T13:28:54.679Z,8.68
2022-11-28T13:32:02.237Z,8.02
2022-11-28T13:35:04.576Z,8.36
2022-11-28T13:42:21.267Z,8.40
2022-11-28T13:45:26.565Z,8.69
2022-11-28T13:49:13.311Z,8.62
2022-11-28T13:52:26.009Z,8.70
2022-11-28T13:55:36.892Z,8.39
2022-11-28T13:58:53.078Z,8.29
2022-11-28T14:01:58.335Z,8.05
2022-11-28T14:05:00.371Z,7.99
2022-11-28T14:08:02.671Z,7.70
2022-11-28T14:11:27.585Z,7.66
2022-11-28T14:14:48.733Z,7.52
2022-11-28T14:17:59.961Z,7.54
2022-11-28T14:21:20.428Z,7.98
2022-11-28T14:24:36.417Z,7.99
2022-11-28T14:27:39.025Z,7.13
2022-11-28T14:30:41.680Z,7.71
2022-11-28T14:33:43.810Z,7.82
2022-11-28T14:36:45.660Z,7.85
2022-11-28T14:39:51.374Z,7.80
2022-11-28T14:43:12.144Z,7.70
2022-11-28T14:46:27.513Z,7.70
2022-11-28T14:49:29.450Z,7.22
2022-11-28T14:52:40.027Z,7.99
2022-11-28T14:55:42.621Z,7.71
2022-11-28T14:58:47.496Z,7.89
2022-11-28T15:01:56.867Z,7.39
2022-11-28T15:05:18.025Z,7.63
2022-11-28T15:08:29.195Z,7.59
2022-11-28T15:11:43.335Z,7.15
2022-11-28T15:14:45.729Z,7.36
2022-11-28T15:17:48.982Z,7.07
2022-11-28T15:20:53.917Z,7.30
2022-11-28T15:23:56.694Z,7.22
2022-11-28T15:27:07.877Z,7.17
2022-11-28T15:30:16.609Z,7.43
2022-11-28T15:33:18.909Z,7.30
2022-11-28T15:36:27.642Z,7.16
2022-11-28T15:39:30.978Z,7.20
2022-11-28T15:42:36.041Z,6.96
2022-11-28T15:45:38.093Z,6.68
2022-11-28T15:48:47.882Z,6.71
2022-11-28T15:51:53.914Z,7.09
2022-11-28T15:54:56.018Z,6.65
2022-11-28T15:58:11.504Z,6.92
2022-11-28T16:01:20.679Z,7.00
2022-11-28T16:04:22.701Z,6.52
2022-11-28T16:07:24.552Z,6.21
2022-11-28T16:10:26.481Z,6.55
2022-11-28T16:13:28.261Z,6.12
2022-11-28T16:16:30.943Z,6.58
2022-11-28T16:19:33.776Z,6.41
2022-11-28T16:22:36.215Z,6.58
2022-11-28T16:25:38.972Z,6.06
2022-11-28T16:28:40.987Z,6.71
2022-11-28T16:31:43.474Z,6.61
2022-11-28T16:34:55.284Z,6.72
2022-11-28T16:38:17.520Z,6.57
2022-11-28T16:41:23.760Z,6.42
2022-11-28T16:44:26.245Z,6.48
2022-11-28T16:47:29.463Z,6.30
2022-11-28T16:50:31.312Z,6.39
2022-11-28T16:53:57.452Z,6.18
2022-11-28T16:57:14.670Z,6.18
2022-11-28T17:00:16.701Z,5.83
2022-11-28T17:03:39.800Z,6.18
2022-11-28T17:06:42.558Z,5.93
2022-11-28T17:09:45.614Z,6.30
2022-11-28T17:12:47.813Z,5.76
2022-11-28T17:15:49.648Z,5.26
2022-11-28T17:18:51.534Z,5.95
2022-11-28T17:21:54.168Z,5.42
2022-11-28T17:24:58.592Z,5.55
2022-11-28T17:28:00.403Z,5.94
2022-11-28T17:31:02.366Z,5.94
2022-11-28T17:34:04.216Z,5.89
2022-11-28T17:37:06.071Z,6.11
2022-11-28T17:40:26.719Z,5.77
2022-11-28T17:43:28.580Z,5.74
2022-11-28T17:46:30.447Z,4.95
2022-11-28T17:49:32.290Z,5.02
2022-11-28T17:52:34.113Z,5.61
2022-11-28T17:55:36.662Z,5.97
2022-11-28T17:58:38.567Z,5.95
2022-11-28T18:01:40.591Z,6.03
2022-11-28T18:04:42.441Z,5.48
2022-11-28T18:07:44.373Z,5.10
2022-11-28T18:10:46.402Z,4.86
2022-11-28T18:13:48.332Z,5.20
2022-11-28T18:16:50.168Z,5.36
2022-11-28T18:19:57.153Z,5.72
2022-11-28T18:22:59.745Z,5.71
2022-11-28T18:26:05.183Z,5.28
2022-11-28T18:29:10.116Z,4.89
2022-11-28T18:32:12.032Z,5.33
2022-11-28T18:35:13.833Z,5.06
2022-11-28T18:38:15.692Z,4.87
2022-11-28T18:41:17.650Z,5.29
2022-11-28T18:44:19.520Z,4.03
2022-11-28T18:47:21.365Z,4.32
2022-11-28T18:50:23.224Z,4.70
2022-11-28T18:53:25.056Z,4.75
2022-11-28T18:56:27.153Z,5.01
2022-11-28T18:59:29.057Z,4.77
2022-11-28T19:02:31.064Z,5.06
2022-11-28T19:05:38.933Z,4.58
2022-11-28T19:08:41.543Z,5.13
2022-11-28T19:11:43.756Z,4.90
2022-11-28T19:14:45.996Z,4.23
2022-11-28T19:17:47.882Z,4.45
2022-11-28T19:20:49.716Z,4.70
2022-11-28T19:23:51.684Z,4.77
2022-11-28T19:26:53.566Z,4.12
2022-11-28T19:29:55.556Z,4.71
2022-11-28T19:32:58.081Z,4.29
2022-11-28T19:36:06.374Z,4.38
2022-11-28T19:39:09.002Z,4.31
2022-11-28T19:42:11.088Z,4.74
2022-11-28T19:45:12.935Z,4.87
2022-11-28T19:48:14.864Z,5.55
2022-11-28T19:51:16.984Z,5.60
2022-11-28T19:54:22.024Z,5.62
2022-11-28T19:57:26.269Z,5.11
2022-11-28T20:00:28.110Z,4.76
2022-11-28T20:03:29.911Z,4.74
2022-11-28T20:06:32.299Z,5.28
2022-11-28T20:09:34.152Z,5.21
2022-11-28T20:12:36.006Z,4.80
2022-11-28T20:15:37.880Z,4.35
2022-11-28T20:18:40.490Z,4.98
2022-11-28T20:21:42.407Z,5.03
2022-11-28T20:24:44.199Z,4.80
2022-11-28T20:27:46.199Z,4.28
2022-11-28T20:30:48.068Z,4.89
2022-11-28T20:33:50.201Z,4.99
2022-11-28T20:36:52.250Z,4.53
2022-11-28T20:39:54.281Z,5.18
2022-11-28T20:42:56.139Z,5.03
2022-11-28T20:46:04.573Z,4.67
2022-11-28T20:49:06.564Z,5.14
2022-11-28T20:52:08.394Z,5.14
2022-11-28T20:55:10.398Z,5.16
2022-11-28T20:58:12.185Z,5.07
2022-11-28T21:01:21.152Z,5.10
2022-11-28T21:04:23.074Z,4.24
2022-11-28T21:07:26.714Z,4.62
2022-11-28T21:10:28.660Z,4.82
2022-11-28T21:13:31.392Z,4.83
2022-11-28T21:16:33.652Z,4.00
2022-11-28T21:19:35.559Z,4.44
2022-11-28T21:22:37.400Z,3.87
2022-11-28T21:25:39.449Z,4.84
2022-11-28T21:28:41.789Z,4.22
2022-11-28T21:31:43.997Z,4.45
2022-11-28T21:34:45.956Z,4.64
2022-11-28T21:37:47.777Z,4.37
2022-11-28T21:40:53.128Z,4.13
2022-11-28T21:43:55.247Z,4.31
2022-11-28T21:46:57.158Z,3.83
2022-11-28T21:49:58.968Z,4.27
2022-11-28T21:53:00.783Z,4.77
2022-11-28T21:56:02.988Z,4.07
2022-11-28T21:59:04.897Z,4.47
2022-11-28T22:05:29.793Z,5.06
2022-11-28T22:08:31.766Z,4.80
2022-11-28T22:11:33.579Z,5.81
2022-11-28T22:14:36.917Z,4.95
2022-11-28T22:17:39.100Z,4.62
2022-11-28T22:20:43.588Z,4.62
2022-11-28T22:23:46.826Z,5.25
2022-11-28T22:26:48.661Z,5.67
2022-11-28T22:29:50.631Z,4.28
2022-11-28T22:32:52.473Z,3.95
2022-11-28T22:35:54.280Z,3.79
2022-11-28T22:38:56.780Z,4.14
2022-11-28T22:41:58.612Z,4.71
2022-11-28T22:45:00.459Z,5.22
2022-11-28T22:48:02.276Z,4.14
2022-11-28T22:51:08.239Z,4.34
2022-11-28T22:54:11.617Z,5.00
2022-11-28T22:57:13.462Z,5.06
2022-11-28T23:00:15.563Z,4.15
2022-11-28T23:03:17.419Z,4.72
2022-11-28T23:06:20.989Z,5.19
2022-11-28T23:09:22.929Z,4.76
2022-11-28T23:12:25.030Z,4.99
2022-11-28T23:15:26.978Z,4.78
2022-11-28T23:18:28.784Z,5.66
2022-11-28T23:21:32.213Z,5.74
2022-11-28T23:24:34.081Z,5.71
2022-11-28T23:27:35.996Z,5.58
2022-11-28T23:30:37.860Z,5.57
2022-11-28T23:33:40.039Z,5.00
2022-11-28T23:36:43.122Z,3.61
2022-11-28T23:39:45.068Z,4.40
2022-11-28T23:42:46.890Z,4.88
2022-11-28T23:45:48.772Z,4.76
2022-11-28T23:48:50.736Z,4.75
2022-11-28T23:51:52.568Z,4.67
2022-11-28T23:54:54.384Z,5.10
2022-11-28T23:57:56.215Z,5.29
